createdAt,value
2022-07-29T00:01:43.233Z,43.94
2022-07-29T00:04:11.514Z,44.03
2022-07-29T00:06:39.426Z,43.91
2022-07-29T00:09:07.911Z,44.21
2022-07-29T00:11:36.791Z,44.28
2022-07-29T00:14:04.721Z,44.43
2022-07-29T00:16:32.608Z,44.38
2022-07-29T00:19:02.240Z,44.46
2022-07-29T00:21:30.294Z,44.73
2022-07-29T00:23:58.104Z,44.68
2022-07-29T00:26:28.061Z,44.85
2022-07-29T00:29:17.164Z,45.06
2022-07-29T00:31:43.322Z,45.09
2022-07-29T00:34:31.220Z,45.28
2022-07-29T00:36:58.799Z,45.41
2022-07-29T00:39:26.509Z,45.48
2022-07-29T00:41:55.221Z,45.64
2022-07-29T00:44:22.774Z,45.79
2022-07-29T00:46:50.436Z,45.86
2022-07-29T00:49:18.640Z,45.85
2022-07-29T00:51:46.965Z,45.90
2022-07-29T00:54:15.642Z,46.10
2022-07-29T00:56:43.793Z,46.27
2022-07-29T00:59:11.449Z,46.30
2022-07-29T01:01:39.090Z,46.30
2022-07-29T01:04:08.306Z,46.60
2022-07-29T01:06:37.010Z,46.49
2022-07-29T01:09:04.983Z,46.60
2022-07-29T01:11:33.587Z,46.69
2022-07-29T01:14:01.953Z,46.77
2022-07-29T01:16:33.741Z,46.98
2022-07-29T01:19:08.777Z,47.12
2022-07-29T01:21:52.503Z,47.22
2022-07-29T01:24:34.574Z,47.39
2022-07-29T01:27:16.311Z,47.27
2022-07-29T01:29:50.049Z,47.62
2022-07-29T01:32:28.326Z,47.74
2022-07-29T01:35:02.890Z,47.87
2022-07-29T01:37:38.724Z,47.97
2022-07-29T01:40:12.518Z,48.24
2022-07-29T01:42:44.435Z,48.37
2022-07-29T01:45:17.747Z,48.76
2022-07-29T01:47:55.300Z,48.82
2022-07-29T01:50:32.491Z,48.89
2022-07-29T01:53:02.878Z,49.27
2022-07-29T01:55:33.028Z,49.28
2022-07-29T01:58:03.793Z,49.65
2022-07-29T02:00:32.952Z,49.87
2022-07-29T02:03:04.576Z,49.94
2022-07-29T02:05:33.896Z,50.13
2022-07-29T02:08:02.722Z,50.46
2022-07-29T02:10:34.187Z,50.56
2022-07-29T02:13:04.273Z,50.68
2022-07-29T02:15:34.656Z,50.77
2022-07-29T02:18:06.083Z,50.91
2022-07-29T02:20:34.705Z,51.15
2022-07-29T02:23:04.423Z,51.21
2022-07-29T02:25:36.989Z,51.41
2022-07-29T02:28:07.395Z,51.49
2022-07-29T02:30:37.697Z,51.75
2022-07-29T02:33:06.944Z,51.82
2022-07-29T02:35:35.122Z,51.87
2022-07-29T02:38:23.489Z,51.88
2022-07-29T02:40:53.919Z,52.15
2022-07-29T02:43:23.308Z,52.09
2022-07-29T02:45:53.746Z,52.15
2022-07-29T02:48:28.735Z,52.23
2022-07-29T02:51:06.012Z,52.38
2022-07-29T02:53:36.161Z,52.50
2022-07-29T02:56:11.484Z,52.70
2022-07-29T02:58:41.736Z,52.84
2022-07-29T03:01:20.899Z,52.94
2022-07-29T03:03:51.605Z,52.86
2022-07-29T03:06:28.559Z,52.79
2022-07-29T03:09:12.603Z,52.93
2022-07-29T03:11:49.552Z,53.34
2022-07-29T03:14:20.023Z,53.21
2022-07-29T03:16:48.564Z,53.34
2022-07-29T03:19:16.975Z,53.41
2022-07-29T03:21:45.683Z,53.52
2022-07-29T03:24:26.508Z,53.76
2022-07-29T03:26:55.937Z,53.79
2022-07-29T03:29:23.594Z,53.93
2022-07-29T03:32:01.412Z,54.01
2022-07-29T03:34:30.432Z,54.14
2022-07-29T03:36:58.737Z,54.15
2022-07-29T03:39:32.130Z,54.24
2022-07-29T03:42:01.707Z,54.49
2022-07-29T03:44:32.115Z,54.55
2022-07-29T03:47:02.829Z,54.69
2022-07-29T03:49:31.615Z,54.82
2022-07-29T03:51:59.802Z,54.96
2022-07-29T03:54:27.872Z,55.06
2022-07-29T03:56:57.980Z,55.27
2022-07-29T03:59:26.671Z,55.24
2022-07-29T04:01:56.415Z,55.30
2022-07-29T04:04:24.075Z,55.11
2022-07-29T04:06:55.194Z,55.32
2022-07-29T04:09:22.864Z,55.44
2022-07-29T04:12:01.602Z,55.61
2022-07-29T04:14:33.111Z,55.56
2022-07-29T04:17:02.240Z,55.58
2022-07-29T04:19:30.465Z,55.78
2022-07-29T04:21:58.559Z,55.67
2022-07-29T04:24:26.173Z,55.83
2022-07-29T04:26:54.310Z,55.76
2022-07-29T04:29:24.044Z,55.82
2022-07-29T04:31:51.682Z,55.78
2022-07-29T04:34:20.004Z,55.46
2022-07-29T04:36:50.058Z,55.39
2022-07-29T04:39:22.677Z,55.42
2022-07-29T04:41:50.987Z,55.31
2022-07-29T04:44:20.112Z,54.86
2022-07-29T04:46:47.895Z,54.51
2022-07-29T04:49:15.506Z,54.36
2022-07-29T04:51:43.106Z,54.20
2022-07-29T04:54:11.056Z,53.97
2022-07-29T04:56:39.164Z,53.80
2022-07-29T04:59:06.802Z,53.50
2022-07-29T05:01:34.448Z,53.16
2022-07-29T05:04:02.132Z,52.93
2022-07-29T05:06:31.121Z,52.56
2022-07-29T05:08:58.652Z,51.98
2022-07-29T05:11:30.224Z,51.89
2022-07-29T05:13:58.247Z,51.66
2022-07-29T05:16:26.085Z,51.45
2022-07-29T05:18:53.822Z,51.29
2022-07-29T05:21:21.316Z,51.13
2022-07-29T05:23:49.112Z,51.08
2022-07-29T05:26:18.928Z,51.04
2022-07-29T05:28:46.512Z,51.03
2022-07-29T05:31:14.981Z,50.83
2022-07-29T05:33:42.554Z,50.94
2022-07-29T05:36:10.139Z,50.90
2022-07-29T05:38:38.192Z,50.90
2022-07-29T05:41:06.225Z,50.83
2022-07-29T05:43:34.436Z,50.89
2022-07-29T05:46:02.601Z,50.84
2022-07-29T05:48:32.072Z,50.76
2022-07-29T05:50:59.604Z,50.76
2022-07-29T05:53:27.263Z,50.82
2022-07-29T05:55:59.120Z,50.66
2022-07-29T05:58:26.755Z,50.57
2022-07-29T06:00:54.346Z,50.54
2022-07-29T06:03:21.857Z,50.50
2022-07-29T06:05:49.429Z,50.52
2022-07-29T06:08:17.666Z,50.50
2022-07-29T06:10:46.291Z,50.50
2022-07-29T06:13:16.169Z,50.35
2022-07-29T06:15:43.923Z,50.44
2022-07-29T06:18:13.666Z,50.55
2022-07-29T06:20:41.771Z,50.60
2022-07-29T06:23:10.256Z,50.31
2022-07-29T06:25:38.053Z,50.24
2022-07-29T06:28:05.882Z,49.82
2022-07-29T06:30:33.544Z,49.51
2022-07-29T06:33:02.364Z,49.34
2022-07-29T06:35:41.413Z,49.01
2022-07-29T06:38:30.060Z,48.94
2022-07-29T06:41:03.015Z,48.64
2022-07-29T06:43:33.969Z,48.35
2022-07-29T06:46:03.799Z,48.24
2022-07-29T06:48:32.192Z,48.21
2022-07-29T06:51:00.179Z,47.73
2022-07-29T06:53:28.811Z,47.78
2022-07-29T06:55:56.628Z,47.70
2022-07-29T06:58:24.254Z,47.49
2022-07-29T07:00:52.135Z,47.42
2022-07-29T07:03:20.340Z,47.65
2022-07-29T07:05:47.984Z,47.52
2022-07-29T07:08:16.515Z,47.46
2022-07-29T07:10:44.438Z,47.44
2022-07-29T07:13:12.152Z,47.47
2022-07-29T07:15:40.424Z,47.48
2022-07-29T07:18:08.214Z,47.46
2022-07-29T07:20:36.446Z,47.35
2022-07-29T07:23:04.958Z,47.11
2022-07-29T07:25:33.150Z,46.66
2022-07-29T07:28:00.753Z,46.30
2022-07-29T07:30:28.581Z,46.18
2022-07-29T07:32:56.261Z,46.03
2022-07-29T07:35:23.888Z,46.09
2022-07-29T07:37:51.463Z,45.88
2022-07-29T07:40:19.094Z,45.94
2022-07-29T07:42:46.912Z,45.72
2022-07-29T07:45:14.675Z,45.85
2022-07-29T07:47:44.244Z,45.83
2022-07-29T07:50:18.249Z,45.72
2022-07-29T07:52:51.244Z,45.74
2022-07-29T07:55:19.451Z,45.91
2022-07-29T07:57:47.538Z,45.96
2022-07-29T08:00:17.164Z,46.08
2022-07-29T08:02:45.649Z,45.77
2022-07-29T08:05:17.151Z,45.83
2022-07-29T08:07:46.501Z,45.77
2022-07-29T08:10:14.622Z,45.82
2022-07-29T08:12:43.593Z,45.99
2022-07-29T08:15:11.263Z,45.83
2022-07-29T08:17:38.965Z,45.63
2022-07-29T08:20:08.041Z,45.53
2022-07-29T08:22:36.080Z,45.60
2022-07-29T08:25:04.420Z,45.38
2022-07-29T08:27:47.800Z,44.92
2022-07-29T08:30:15.608Z,44.88
2022-07-29T08:32:53.551Z,44.91
2022-07-29T08:35:22.725Z,44.98
2022-07-29T08:37:51.249Z,44.82
2022-07-29T08:40:18.960Z,44.62
2022-07-29T08:42:46.835Z,44.54
2022-07-29T08:45:14.479Z,44.04
2022-07-29T08:47:43.992Z,44.39
2022-07-29T08:50:13.377Z,44.19
2022-07-29T08:52:42.294Z,44.00
2022-07-29T08:55:11.292Z,44.19
2022-07-29T08:57:43.422Z,44.11
2022-07-29T09:00:21.250Z,44.18
2022-07-29T09:02:57.173Z,43.98
2022-07-29T09:05:26.546Z,43.83
2022-07-29T09:07:54.410Z,43.66
2022-07-29T09:10:22.435Z,43.61
2022-07-29T09:12:50.260Z,43.79
2022-07-29T09:15:19.010Z,43.71
2022-07-29T09:17:49.510Z,43.13
2022-07-29T09:20:19.282Z,43.02
2022-07-29T09:22:49.647Z,42.87
2022-07-29T09:25:33.463Z,42.98
2022-07-29T09:28:08.490Z,42.75
2022-07-29T09:30:37.075Z,42.60
2022-07-29T09:33:04.796Z,42.53
2022-07-29T09:35:32.474Z,42.70
2022-07-29T09:38:11.816Z,42.56
2022-07-29T09:40:40.346Z,42.44
2022-07-29T09:43:14.337Z,42.24
2022-07-29T09:45:42.292Z,42.36
2022-07-29T09:48:20.861Z,42.35
2022-07-29T09:50:50.128Z,42.31
2022-07-29T09:53:33.171Z,42.25
2022-07-29T09:56:01.551Z,42.32
2022-07-29T09:58:29.364Z,42.14
2022-07-29T10:00:57.730Z,42.10
2022-07-29T10:03:25.837Z,41.99
2022-07-29T10:06:08.860Z,42.26
2022-07-29T10:08:36.835Z,41.92
2022-07-29T10:11:13.328Z,41.93
2022-07-29T10:13:40.864Z,41.87
2022-07-29T10:16:09.047Z,41.58
2022-07-29T10:18:38.806Z,41.39
2022-07-29T10:21:07.526Z,41.43
2022-07-29T10:23:46.422Z,41.19
2022-07-29T10:26:16.541Z,41.37
2022-07-29T10:28:44.247Z,41.51
2022-07-29T10:31:21.333Z,41.39
2022-07-29T10:34:02.198Z,41.05
2022-07-29T10:36:47.185Z,40.84
2022-07-29T10:39:27.179Z,40.92
2022-07-29T10:42:20.139Z,41.18
2022-07-29T10:44:57.313Z,41.44
2022-07-29T10:47:26.573Z,40.92
2022-07-29T10:49:59.116Z,40.56
2022-07-29T10:52:57.799Z,40.34
2022-07-29T10:55:43.356Z,39.99
2022-07-29T10:58:16.198Z,39.99
2022-07-29T11:00:47.614Z,39.27
2022-07-29T11:03:49.696Z,39.76
2022-07-29T11:06:26.967Z,39.83
2022-07-29T11:09:18.157Z,39.70
2022-07-29T11:11:51.545Z,39.32
2022-07-29T11:14:40.660Z,38.79
2022-07-29T11:17:08.281Z,39.14
2022-07-29T11:19:40.370Z,39.37
2022-07-29T11:22:31.682Z,39.25
2022-07-29T11:25:14.824Z,39.19
2022-07-29T11:27:45.927Z,39.24
2022-07-29T11:30:14.584Z,39.16
2022-07-29T11:32:44.617Z,39.33
2022-07-29T11:35:18.858Z,39.27
2022-07-29T11:37:55.242Z,39.04
2022-07-29T11:40:23.616Z,39.19
2022-07-29T11:42:52.405Z,38.95
2022-07-29T11:45:44.312Z,38.82
2022-07-29T11:48:29.099Z,38.54
2022-07-29T11:50:59.113Z,38.35
2022-07-29T11:53:29.073Z,38.46
2022-07-29T11:56:02.697Z,38.60
2022-07-29T11:58:32.187Z,38.15
2022-07-29T12:01:04.531Z,38.47
2022-07-29T12:06:21.177Z,38.22
2022-07-29T12:07:03.649Z,38.09
2022-07-29T12:08:48.982Z,37.98
2022-07-29T12:11:22.375Z,37.65
2022-07-29T12:13:51.464Z,37.70
2022-07-29T12:16:25.611Z,37.56
2022-07-29T12:18:59.594Z,37.77
2022-07-29T12:21:29.037Z,37.43
2022-07-29T12:24:01.841Z,38.00
2022-07-29T12:26:34.362Z,37.98
2022-07-29T12:29:03.978Z,37.82
2022-07-29T12:31:43.806Z,37.86
2022-07-29T12:34:14.295Z,37.79
2022-07-29T12:36:42.885Z,38.07
2022-07-29T12:39:12.733Z,37.82
2022-07-29T12:41:40.341Z,37.58
2022-07-29T12:44:08.171Z,37.78
2022-07-29T12:46:35.900Z,37.50
2022-07-29T12:49:04.897Z,37.47
2022-07-29T12:51:34.311Z,37.50
2022-07-29T12:54:07.726Z,37.43
2022-07-29T12:56:44.145Z,37.44
2022-07-29T12:59:17.933Z,37.77
2022-07-29T13:01:47.392Z,37.41
2022-07-29T13:04:25.744Z,37.19
2022-07-29T13:07:00.488Z,37.20
2022-07-29T13:09:38.701Z,36.91
2022-07-29T13:12:10.208Z,36.90
2022-07-29T13:14:39.268Z,36.77
2022-07-29T13:17:08.354Z,36.36
2022-07-29T13:19:38.167Z,36.22
2022-07-29T13:22:06.206Z,36.25
2022-07-29T13:24:34.227Z,36.67
2022-07-29T13:27:01.768Z,36.47
2022-07-29T13:29:33.843Z,36.48
2022-07-29T13:32:01.689Z,36.36
2022-07-29T13:34:29.358Z,36.40
2022-07-29T13:36:56.875Z,36.36
2022-07-29T13:39:24.453Z,36.48
2022-07-29T13:41:52.767Z,36.36
2022-07-29T13:44:20.551Z,36.46
2022-07-29T13:46:48.143Z,36.56
2022-07-29T13:49:15.835Z,36.66
2022-07-29T13:51:43.763Z,36.56
2022-07-29T13:54:11.397Z,36.79
2022-07-29T13:56:38.930Z,36.68
2022-07-29T13:59:08.009Z,36.56
2022-07-29T14:01:35.780Z,36.65
2022-07-29T14:04:03.807Z,36.44
2022-07-29T14:06:31.392Z,36.56
2022-07-29T14:08:58.925Z,36.88
2022-07-29T14:11:26.641Z,37.08
2022-07-29T14:13:54.177Z,36.87
2022-07-29T14:16:21.783Z,36.87
2022-07-29T14:18:49.507Z,36.78
2022-07-29T14:21:17.796Z,37.30
2022-07-29T14:23:45.355Z,37.33
2022-07-29T14:26:15.847Z,37.35
2022-07-29T14:28:49.576Z,37.61
2022-07-29T14:31:17.408Z,36.93
2022-07-29T14:33:46.287Z,37.19
2022-07-29T14:36:17.262Z,37.45
2022-07-29T14:38:45.172Z,37.48
2022-07-29T14:41:13.551Z,37.35
2022-07-29T14:43:41.419Z,37.22
2022-07-29T14:46:12.001Z,37.49
2022-07-29T14:48:39.608Z,37.16
2022-07-29T14:51:07.149Z,37.33
2022-07-29T14:53:34.979Z,36.96
2022-07-29T14:56:15.278Z,36.69
2022-07-29T14:58:51.650Z,36.89
2022-07-29T15:01:19.738Z,37.15
2022-07-29T15:03:47.331Z,37.00
2022-07-29T15:06:15.070Z,37.01
2022-07-29T15:08:42.778Z,37.01
2022-07-29T15:11:10.343Z,37.20
2022-07-29T15:13:38.165Z,37.11
2022-07-29T15:16:06.989Z,37.36
2022-07-29T15:18:34.604Z,37.35
2022-07-29T15:21:02.702Z,37.51
2022-07-29T15:23:30.805Z,37.62
2022-07-29T15:25:58.388Z,37.86
2022-07-29T15:28:25.999Z,37.75
2022-07-29T15:30:54.787Z,37.38
2022-07-29T15:33:22.385Z,37.19
2022-07-29T15:35:49.980Z,37.16
2022-07-29T15:38:20.170Z,36.87
2022-07-29T15:40:56.400Z,37.13
2022-07-29T15:43:23.996Z,37.22
2022-07-29T15:46:12.352Z,37.01
2022-07-29T15:48:42.109Z,37.50
2022-07-29T15:51:09.692Z,37.66
2022-07-29T15:53:37.530Z,37.57
2022-07-29T15:56:06.609Z,37.78
2022-07-29T15:58:34.526Z,37.56
2022-07-29T16:01:02.126Z,37.84
2022-07-29T16:03:30.105Z,38.03
2022-07-29T16:05:57.864Z,38.18
2022-07-29T16:08:25.635Z,38.42
2022-07-29T16:10:53.269Z,38.67
2022-07-29T16:13:20.993Z,38.41
2022-07-29T16:16:02.537Z,38.61
2022-07-29T16:18:30.734Z,38.56
2022-07-29T16:20:58.474Z,38.56
2022-07-29T16:23:26.127Z,39.63
2022-07-29T16:26:01.615Z,40.33
2022-07-29T16:28:30.005Z,40.56
2022-07-29T16:30:57.702Z,40.96
2022-07-29T16:33:25.425Z,41.32
2022-07-29T16:35:53.567Z,41.70
2022-07-29T16:38:21.137Z,41.70
2022-07-29T16:40:49.505Z,41.82
2022-07-29T16:43:17.163Z,41.87
2022-07-29T16:45:46.233Z,42.05
2022-07-29T16:48:14.477Z,42.06
2022-07-29T16:50:43.593Z,42.24
2022-07-29T16:53:11.619Z,42.12
2022-07-29T16:55:42.289Z,42.12
2022-07-29T16:58:10.313Z,42.37
2022-07-29T17:00:38.241Z,42.48
2022-07-29T17:03:06.501Z,42.68
2022-07-29T17:05:50.653Z,42.86
2022-07-29T17:08:22.139Z,43.02
2022-07-29T17:10:49.959Z,43.22
2022-07-29T17:13:17.471Z,43.46
2022-07-29T17:15:45.288Z,43.60
2022-07-29T17:18:13.136Z,43.60
2022-07-29T17:20:41.854Z,43.75
2022-07-29T17:23:10.234Z,44.07
2022-07-29T17:25:37.932Z,44.12
2022-07-29T17:28:06.775Z,44.15
2022-07-29T17:30:34.360Z,44.28
2022-07-29T17:33:01.973Z,44.52
2022-07-29T17:35:47.949Z,44.71
2022-07-29T17:38:15.552Z,45.03
2022-07-29T17:40:43.130Z,44.97
2022-07-29T17:43:10.849Z,45.03
2022-07-29T17:45:48.839Z,45.23
2022-07-29T17:48:18.532Z,45.55
2022-07-29T17:50:48.627Z,45.68
2022-07-29T17:53:16.864Z,45.75
2022-07-29T17:55:44.966Z,45.95
2022-07-29T17:58:12.944Z,46.10
2022-07-29T18:00:40.684Z,46.29
2022-07-29T18:03:08.627Z,46.46
2022-07-29T18:05:36.433Z,46.65
2022-07-29T18:08:04.495Z,46.85
2022-07-29T18:10:32.603Z,47.17
2022-07-29T18:13:00.346Z,47.40
2022-07-29T18:15:30.045Z,47.52
2022-07-29T18:17:58.138Z,47.57
2022-07-29T18:20:26.676Z,47.70
2022-07-29T18:22:54.366Z,47.78
2022-07-29T18:25:22.158Z,47.87
2022-07-29T18:27:49.745Z,48.05
2022-07-29T18:30:18.543Z,48.36
2022-07-29T18:33:04.926Z,48.45
2022-07-29T18:35:34.365Z,48.62
2022-07-29T18:38:03.162Z,48.77
2022-07-29T18:40:31.606Z,48.96
2022-07-29T18:42:59.206Z,49.23
2022-07-29T18:45:28.736Z,49.05
2022-07-29T18:47:56.680Z,49.30
2022-07-29T18:50:28.961Z,49.38
2022-07-29T18:52:57.954Z,49.42
2022-07-29T18:55:26.659Z,49.69
2022-07-29T18:57:56.862Z,49.97
2022-07-29T19:00:29.454Z,49.94
2022-07-29T19:02:57.015Z,50.21
2022-07-29T19:05:24.827Z,50.46
2022-07-29T19:07:54.126Z,50.86
2022-07-29T19:10:22.264Z,51.10
2022-07-29T19:12:49.942Z,51.24
2022-07-29T19:15:20.509Z,51.99
2022-07-29T19:17:48.809Z,52.12
2022-07-29T19:20:16.684Z,52.07
2022-07-29T19:22:44.852Z,52.10
2022-07-29T19:25:12.601Z,52.38
2022-07-29T19:27:41.129Z,52.81
2022-07-29T19:30:10.754Z,52.93
2022-07-29T19:32:38.758Z,53.03
2022-07-29T19:35:27.660Z,53.35
2022-07-29T19:37:57.654Z,53.47
2022-07-29T19:40:26.517Z,53.63
2022-07-29T19:42:55.658Z,53.95
2022-07-29T19:45:24.472Z,54.22
2022-07-29T19:47:52.126Z,54.48
2022-07-29T19:50:19.878Z,54.62
2022-07-29T19:52:48.337Z,54.61
2022-07-29T19:55:16.291Z,55.04
2022-07-29T19:57:46.669Z,55.12
2022-07-29T20:00:17.232Z,55.26
2022-07-29T20:02:48.704Z,55.64
2022-07-29T20:05:16.672Z,55.60
2022-07-29T20:07:46.330Z,55.86
2022-07-29T20:10:14.421Z,55.93
2022-07-29T20:12:43.085Z,56.18
2022-07-29T20:15:16.317Z,56.43
2022-07-29T20:17:44.672Z,56.63
2022-07-29T20:20:12.564Z,56.57
2022-07-29T20:22:40.504Z,56.68
2022-07-29T20:25:09.405Z,56.86
2022-07-29T20:27:39.815Z,56.76
2022-07-29T20:30:12.832Z,56.88
2022-07-29T20:32:40.999Z,57.18
2022-07-29T20:35:11.393Z,57.24
2022-07-29T20:37:52.210Z,57.15
2022-07-29T20:40:25.456Z,57.48
2022-07-29T20:42:57.533Z,57.39
2022-07-29T20:45:25.306Z,57.59
2022-07-29T20:47:54.462Z,57.58
2022-07-29T20:50:24.320Z,57.66
2022-07-29T20:52:52.611Z,57.72
2022-07-29T20:55:22.182Z,57.78
2022-07-29T20:57:51.459Z,57.93
2022-07-29T21:00:19.271Z,58.00
2022-07-29T21:02:47.609Z,58.23
2022-07-29T21:05:15.403Z,58.30
2022-07-29T21:07:43.077Z,58.62
2022-07-29T21:10:11.241Z,58.92
2022-07-29T21:12:39.139Z,58.95
2022-07-29T21:15:12.806Z,59.20
2022-07-29T21:17:46.061Z,59.14
2022-07-29T21:20:14.983Z,59.48
2022-07-29T21:22:43.112Z,59.66
2022-07-29T21:25:14.208Z,59.69
2022-07-29T21:28:00.143Z,59.79
2022-07-29T21:30:28.097Z,59.92
2022-07-29T21:32:55.842Z,60.06
2022-07-29T21:36:06.243Z,60.16
2022-07-29T21:38:11.505Z,60.33
2022-07-29T21:40:39.694Z,60.21
2022-07-29T21:43:07.279Z,60.30
2022-07-29T21:45:37.699Z,60.35
2022-07-29T21:48:06.586Z,60.60
2022-07-29T21:50:34.744Z,60.86
2022-07-29T21:53:02.287Z,60.90
2022-07-29T21:55:32.561Z,61.04
2022-07-29T21:58:00.270Z,61.26
2022-07-29T22:00:28.155Z,61.51
2022-07-29T22:02:58.687Z,61.53
2022-07-29T22:05:26.295Z,61.51
2022-07-29T22:07:56.706Z,61.42
2022-07-29T22:10:25.734Z,61.24
2022-07-29T22:12:54.923Z,61.34
2022-07-29T22:15:23.120Z,61.46
2022-07-29T22:17:51.531Z,61.65
2022-07-29T22:20:19.434Z,61.83
2022-07-29T22:22:50.327Z,61.95
2022-07-29T22:25:17.904Z,62.05
2022-07-29T22:27:45.545Z,62.17
2022-07-29T22:30:13.909Z,62.28
2022-07-29T22:32:43.119Z,62.31
2022-07-29T22:35:11.278Z,62.42
2022-07-29T22:37:39.357Z,62.34
2022-07-29T22:40:09.017Z,62.19
2022-07-29T22:42:36.672Z,62.03
2022-07-29T22:45:10.506Z,61.85
2022-07-29T22:47:48.119Z,61.74
2022-07-29T22:50:17.215Z,61.58
2022-07-29T22:52:45.423Z,61.30
2022-07-29T22:55:14.414Z,61.07
2022-07-29T22:57:42.602Z,60.65
2022-07-29T23:00:12.847Z,60.36
2022-07-29T23:02:41.352Z,60.08
2022-07-29T23:05:10.728Z,59.87
2022-07-29T23:07:38.450Z,59.58
2022-07-29T23:10:09.849Z,59.30
2022-07-29T23:12:38.722Z,59.14
2022-07-29T23:15:07.433Z,59.04
2022-07-29T23:17:36.318Z,58.92
2022-07-29T23:20:08.253Z,58.63
2022-07-29T23:22:37.732Z,58.39
2022-07-29T23:25:06.754Z,58.33
2022-07-29T23:27:36.010Z,58.22
2022-07-29T23:30:05.932Z,58.06
2022-07-29T23:32:34.291Z,57.91
2022-07-29T23:35:02.877Z,57.77
2022-07-29T23:37:30.743Z,57.69
2022-07-29T23:39:58.367Z,57.63
2022-07-29T23:42:28.560Z,57.44
2022-07-29T23:44:56.732Z,57.36
2022-07-29T23:47:26.089Z,57.12
2022-07-29T23:49:54.977Z,56.92
2022-07-29T23:52:22.779Z,56.90
2022-07-29T23:54:50.561Z,56.73
2022-07-29T23:57:22.056Z,56.56
2022-07-29T23:59:50.214Z,56.35
